Time;durP1;ratioP1;P1;durP2;ratioP2;P2;SDS_P1;SDS_P2;PMS_P1;PMS_P2;Temp;Humidity;BMP_temperature;BMP_pressure;BME280_temperature;BME280_humidity;BME280_pressure;Samples;Min_cycle;Max_cycle;Signal;HPM_P1;HPM_P2
2022/11/10 00:01:38;;;;;;;10.23;7.47;;;;;;;7.40;100.00;101387.25;10533887;28;20032;-72
2022/11/10 00:06:39;;;;;;;11.73;8.50;;;;;;;7.00;100.00;101321.66;10505105;28;20047;-71
2022/11/10 00:11:41;;;;;;;10.18;8.07;;;;;;;7.30;100.00;101390.63;10498536;28;20500;-71
2022/11/10 00:17:00;;;;;;;11.35;8.50;;;;;;;7.13;100.00;101377.88;10498755;28;20405;-71
2022/11/10 00:22:01;;;;;;;12.52;8.00;;;;;;;7.27;100.00;101411.16;10498158;28;20039;-72
2022/11/10 00:27:02;;;;;;;11.18;8.57;;;;;;;7.06;100.00;101368.75;10497858;28;20546;-72
2022/11/10 00:32:03;;;;;;;12.48;8.23;;;;;;;7.19;100.00;101402.97;10497882;28;20037;-72
2022/11/10 00:37:03;;;;;;;10.77;8.18;;;;;;;7.13;100.00;101377.03;10498264;28;20048;-72
2022/11/10 00:42:05;;;;;;;14.50;8.45;;;;;;;6.76;100.00;101311.22;10498136;28;20064;-72
2022/11/10 00:47:06;;;;;;;13.65;8.20;;;;;;;7.15;100.00;101377.75;10496886;28;20135;-72
2022/11/10 00:52:07;;;;;;;11.48;7.75;;;;;;;7.19;100.00;101400.34;10497980;28;20068;-72
2022/11/10 00:57:08;;;;;;;10.88;8.25;;;;;;;7.15;100.00;101391.81;10497041;28;20037;-72
2022/11/10 01:02:10;;;;;;;10.65;8.25;;;;;;;6.94;100.00;101365.28;10497057;28;20426;-72
2022/11/10 01:07:11;;;;;;;11.10;8.63;;;;;;;7.08;100.00;101385.31;10496663;28;20048;-71
2022/11/10 01:12:13;;;;;;;14.85;7.80;;;;;;;7.17;100.00;101402.25;10496235;28;20036;-72
2022/11/10 01:17:14;;;;;;;13.38;8.43;;;;;;;6.94;100.00;101375.84;10496553;28;20036;-72
2022/11/10 01:22:14;;;;;;;13.13;7.65;;;;;;;7.07;100.00;101381.00;10496961;28;20040;-71
2022/11/10 01:27:15;;;;;;;11.55;8.32;;;;;;;6.92;100.00;101371.63;10495670;28;20101;-71
2022/11/10 01:32:16;;;;;;;11.20;8.00;;;;;;;7.07;100.00;101394.22;10496557;28;20123;-71
2022/11/10 01:37:17;;;;;;;11.52;7.85;;;;;;;6.99;100.00;101399.25;10500976;28;20515;-72
2022/11/10 01:42:26;;;;;;;9.93;8.05;;;;;;;6.99;100.00;101397.44;10501570;28;20059;-72
2022/11/10 01:47:27;;;;;;;10.65;7.22;;;;;;;7.09;100.00;101424.00;10495284;28;20135;-72
2022/11/10 01:52:28;;;;;;;13.48;7.95;;;;;;;7.01;100.00;101402.63;10504160;28;20627;-72
2022/11/10 01:57:29;;;;;;;9.32;7.60;;;;;;;6.79;100.00;101359.38;10519837;28;20485;-72
2022/11/10 02:02:41;;;;;;;9.15;7.35;;;;;;;7.20;100.00;101434.56;10495475;28;20032;-72
2022/11/10 02:07:42;;;;;;;9.48;7.32;;;;;;;7.21;100.00;101432.75;10529298;28;20411;-72
2022/11/10 02:12:44;;;;;;;10.38;7.53;;;;;;;7.02;100.00;101410.41;10537182;28;20040;-72
2022/11/10 02:17:46;;;;;;;11.65;7.72;;;;;;;7.14;100.00;101436.84;10501100;28;20105;-72
2022/11/10 02:22:47;;;;;;;11.07;7.55;;;;;;;7.10;100.00;101446.81;10495352;28;20075;-72
2022/11/10 02:27:48;;;;;;;10.13;7.03;;;;;;;7.12;100.00;101433.47;10495721;28;20036;-72
2022/11/10 02:32:49;;;;;;;10.15;7.00;;;;;;;7.18;100.00;101431.22;10495666;28;20525;-71
2022/11/10 02:37:50;;;;;;;8.70;6.93;;;;;;;7.19;100.00;101437.34;10495250;28;20052;-71
2022/11/10 02:42:51;;;;;;;8.75;6.50;;;;;;;7.26;100.00;101441.19;10471267;28;20055;-71
2022/11/10 02:47:51;;;;;;;11.93;6.75;;;;;;;7.32;100.00;101457.38;10460923;28;20493;-71
2022/11/10 02:52:52;;;;;;;9.93;6.95;;;;;;;7.25;100.00;101464.13;10486711;28;20055;-71
2022/11/10 02:57:53;;;;;;;12.05;7.47;;;;;;;7.09;100.00;101439.84;10472582;28;20052;-71
2022/11/10 03:03:01;;;;;;;9.68;7.60;;;;;;;7.17;100.00;101463.88;10480677;28;20048;-71
2022/11/10 03:08:02;;;;;;;9.35;7.30;;;;;;;7.18;100.00;101470.00;10480772;28;20774;-71
2022/11/10 03:13:03;;;;;;;11.95;6.93;;;;;;;7.15;100.00;101460.53;10484785;28;20040;-71
2022/11/10 03:18:04;;;;;;;10.93;6.43;;;;;;;6.88;100.00;101425.63;10495362;28;20044;-71
2022/11/10 03:23:05;;;;;;;8.40;6.75;;;;;;;7.00;100.00;101466.97;10493783;28;20139;-71
2022/11/10 03:28:06;;;;;;;12.98;6.82;;;;;;;6.97;100.00;101465.41;10501091;28;20040;-71
2022/11/10 03:33:08;;;;;;;20.73;6.90;;;;;;;6.97;100.00;101460.13;10501236;28;20037;-71
2022/11/10 03:38:09;;;;;;;19.27;7.75;;;;;;;6.85;100.00;101448.72;10503829;28;20044;-71
2022/11/10 03:43:11;;;;;;;22.27;6.97;;;;;;;6.90;100.00;101455.44;10541534;28;20040;-71
2022/11/10 03:48:11;;;;;;;13.27;7.90;;;;;;;6.95;100.00;101469.97;10539119;28;20077;-71
2022/11/10 03:53:12;;;;;;;11.20;7.50;;;;;;;6.72;100.00;101450.56;10509801;28;20055;-71
2022/11/10 03:58:13;;;;;;;14.43;8.65;;;;;;;6.43;100.00;101413.16;10499313;28;20040;-71
2022/11/10 04:03:13;;;;;;;14.07;8.30;;;;;;;6.86;100.00;101489.16;10498853;28;20047;-71
2022/11/10 04:18:54;;;;;;;12.52;7.63;;;;;;;6.82;100.00;101458.63;10498958;28;20612;-71
2022/11/10 04:23:55;;;;;;;18.02;7.97;;;;;;;6.99;100.00;101500.47;10499027;28;20143;-71
2022/11/10 04:28:58;;;;;;;30.88;8.13;;;;;;;6.64;100.00;101434.47;10498915;28;20040;-71
2022/11/10 04:33:59;;;;;;;41.45;9.88;;;;;;;7.14;100.00;101505.56;10498577;28;20381;-71
2022/11/10 04:39:00;;;;;;;35.70;10.05;;;;;;;7.05;100.00;101496.53;10497892;28;20057;-71
2022/11/10 04:44:01;;;;;;;22.83;9.65;;;;;;;7.18;100.00;101515.78;10497195;28;20044;-71
2022/11/10 04:49:03;;;;;;;37.45;9.07;;;;;;;7.23;100.00;101518.91;10515747;27;20046;-72
2022/11/10 04:54:06;;;;;;;25.17;8.05;;;;;;;7.14;100.00;101513.47;10580837;28;20050;-71
2022/11/10 04:59:07;;;;;;;30.67;8.93;;;;;;;7.29;100.00;101536.91;10581144;28;20039;-73
2022/11/10 05:04:07;;;;;;;28.45;8.45;;;;;;;7.29;100.00;101544.03;10579217;28;20046;-71
2022/11/10 05:09:08;;;;;;;44.22;8.52;;;;;;;7.29;100.00;101549.31;10580784;28;20122;-70
2022/11/10 05:14:09;;;;;;;33.35;10.00;;;;;;;7.17;100.00;101548.44;10580939;28;20039;-73
2022/11/10 05:19:10;;;;;;;24.17;9.43;;;;;;;7.10;100.00;101534.00;10579444;28;20063;-70
2022/11/10 05:24:11;;;;;;;31.63;8.73;;;;;;;7.30;100.00;101561.59;10580419;28;20067;-71
2022/11/10 05:29:11;;;;;;;21.13;8.38;;;;;;;7.12;100.00;101518.03;10579976;28;20528;-72
2022/11/10 05:34:13;;;;;;;21.00;9.27;;;;;;;6.89;100.00;101480.16;10580143;28;20400;-71
2022/11/10 05:39:14;;;;;;;15.85;9.05;;;;;;;7.45;100.00;101562.19;10580385;28;20051;-69
2022/11/10 05:44:14;;;;;;;16.40;8.48;;;;;;;7.42;100.00;101557.13;10579067;28;20050;-71
2022/11/10 05:49:15;;;;;;;36.10;9.38;;;;;;;7.03;100.00;101487.84;10578789;28;20043;-71
2022/11/10 05:54:16;;;;;;;19.52;9.27;;;;;;;7.57;100.00;101569.19;10529894;28;20512;-71
2022/11/10 05:59:17;;;;;;;34.03;10.30;;;;;;;7.49;100.00;101559.19;10528855;28;20435;-73
2022/11/10 06:04:18;;;;;;;28.17;10.95;;;;;;;7.11;100.00;101496.06;10537439;28;20052;-74
2022/11/10 06:09:18;;;;;;;28.13;10.32;;;;;;;7.18;100.00;101507.84;10536691;28;20406;-74
2022/11/10 06:14:19;;;;;;;21.10;9.75;;;;;;;7.49;100.00;101569.78;10536698;28;20481;-74
2022/11/10 06:19:20;;;;;;;47.95;11.82;;;;;;;7.31;100.00;101545.59;10537266;28;20040;-74
2022/11/10 06:24:21;;;;;;;25.40;12.38;;;;;;;7.17;100.00;101523.81;10536601;28;20048;-74
2022/11/10 06:29:21;;;;;;;49.42;13.27;;;;;;;7.34;100.00;101562.19;10539460;28;20480;-74
2022/11/10 06:34:22;;;;;;;37.78;13.27;;;;;;;7.30;100.00;101561.59;10544268;28;20196;-74
2022/11/10 06:39:23;;;;;;;45.13;12.60;;;;;;;7.24;100.00;101543.53;10544841;28;20542;-74
2022/11/10 06:44:24;;;;;;;63.20;12.32;;;;;;;7.61;100.00;101583.03;10543021;28;20048;-73
2022/11/10 06:49:25;;;;;;;31.23;12.32;;;;;;;7.64;100.00;101582.78;10543856;28;20048;-73
2022/11/10 06:54:25;;;;;;;25.15;12.65;;;;;;;7.62;100.00;101569.66;10544173;28;20126;-73
2022/11/10 06:59:26;;;;;;;23.65;12.50;;;;;;;7.59;100.00;101556.69;10539914;28;20035;-75
2022/11/10 07:04:27;;;;;;;26.33;13.65;;;;;;;7.71;100.00;101550.44;10561643;28;20059;-74
2022/11/10 07:09:28;;;;;;;23.58;13.20;;;;;;;8.00;100.00;101590.47;10585213;28;20160;-73
2022/11/10 07:14:29;;;;;;;21.60;12.93;;;;;;;7.65;100.00;101518.34;10584829;28;20065;-73
2022/11/10 07:19:31;;;;;;;19.77;12.30;;;;;;;8.23;100.00;101588.66;10585169;28;20047;-73
2022/11/10 07:24:32;;;;;;;25.08;12.82;;;;;;;8.35;100.00;101586.00;10582878;28;20122;-74
2022/11/10 07:29:33;;;;;;;22.05;13.18;;;;;;;8.45;100.00;101609.00;10556139;27;20122;-74
2022/11/10 07:34:33;;;;;;;15.82;11.27;;;;;;;8.41;100.00;101612.03;10539000;28;20416;-74
2022/11/10 07:39:34;;;;;;;15.30;10.18;;;;;;;7.95;100.00;101565.34;10541497;28;20056;-73
2022/11/10 07:44:35;;;;;;;13.38;9.60;;;;;;;8.28;100.00;101628.00;10542123;28;20071;-73
2022/11/10 07:49:36;;;;;;;12.50;9.77;;;;;;;8.33;100.00;101617.91;10541654;28;20059;-73
2022/11/10 07:54:37;;;;;;;13.60;10.25;;;;;;;8.42;100.00;101627.78;10541809;28;20040;-73
2022/11/10 07:59:37;;;;;;;12.80;9.05;;;;;;;8.48;100.00;101626.44;10541093;28;20047;-73
2022/11/10 08:04:38;;;;;;;13.15;9.20;;;;;;;8.08;100.00;101544.91;10540674;28;20043;-73
2022/11/10 08:09:39;;;;;;;21.05;9.80;;;;;;;8.38;100.00;101596.34;10540800;28;20059;-74
2022/11/10 08:14:40;;;;;;;13.35;8.90;;;;;;;8.45;100.00;101592.28;10540948;28;20043;-74
2022/11/10 08:19:40;;;;;;;19.80;9.20;;;;;;;8.28;100.00;101571.56;10534955;28;20028;-74
2022/11/10 08:24:41;;;;;;;15.60;10.23;;;;;;;8.48;100.00;101609.72;10532903;28;20048;-74
2022/11/10 08:29:42;;;;;;;16.85;11.38;;;;;;;7.94;100.00;101532.75;10540680;28;20172;-74
2022/11/10 08:34:43;;;;;;;23.73;12.30;;;;;;;8.51;100.00;101614.78;10540200;28;20090;-73
2022/11/10 08:39:44;;;;;;;19.25;13.10;;;;;;;8.50;100.00;101608.66;10539836;28;20060;-74
2022/11/10 08:44:44;;;;;;;17.40;11.60;;;;;;;8.53;100.00;101608.41;10539840;28;20055;-74
2022/11/10 08:49:45;;;;;;;17.25;11.75;;;;;;;8.34;100.00;101613.44;10539890;28;20047;-74
2022/11/10 08:54:46;;;;;;;17.75;11.40;;;;;;;7.84;100.00;101526.53;10539430;28;20051;-74
2022/11/10 08:59:47;;;;;;;30.75;17.90;;;;;;;7.88;100.00;101549.13;10539200;28;20496;-74
2022/11/10 09:04:48;;;;;;;16.83;11.45;;;;;;;8.25;100.00;101604.41;10538894;28;20040;-74
2022/11/10 09:09:49;;;;;;;20.67;11.88;;;;;;;7.99;100.00;101567.63;10538430;28;20039;-74
2022/11/10 09:14:49;;;;;;;17.65;12.00;;;;;;;8.24;100.00;101608.88;10539154;28;20093;-74
2022/11/10 09:19:50;;;;;;;18.00;10.40;;;;;;;8.22;100.00;101602.84;10537936;28;20035;-74
2022/11/10 09:24:51;;;;;;;21.13;12.82;;;;;;;7.64;100.00;101503.44;10538295;28;20050;-74
2022/11/10 09:29:51;;;;;;;14.95;9.65;;;;;;;8.06;100.00;101573.28;10538610;28;20036;-74
2022/11/10 09:34:52;;;;;;;13.35;9.02;;;;;;;8.29;100.00;101600.59;10538219;28;20476;-74
2022/11/10 09:39:53;;;;;;;11.95;8.48;;;;;;;8.27;100.00;101601.66;10537807;28;20055;-73
2022/11/10 09:45:05;;;;;;;15.63;8.90;;;;;;;8.32;100.00;101584.44;10537237;28;20134;-73
2022/11/10 09:50:13;;;;;;;18.48;9.38;;;;;;;8.35;100.00;101592.16;10537830;28;20040;-74
2022/11/10 09:55:27;;;;;;;14.52;8.57;;;;;;;8.37;100.00;101597.31;10538170;28;20047;-74
2022/11/10 10:00:32;;;;;;;11.40;7.38;;;;;;;8.22;100.00;101594.91;10537538;28;20044;-73
2022/11/10 10:06:01;;;;;;;14.57;8.30;;;;;;;8.30;100.00;101612.00;10541822;28;20044;-74
2022/11/10 10:11:23;;;;;;;11.82;8.10;;;;;;;8.21;100.00;101609.13;10545486;28;20043;-74
2022/11/10 10:16:47;;;;;;;13.30;8.25;;;;;;;8.17;100.00;101597.09;10545302;28;20043;-74
2022/11/10 10:21:57;;;;;;;15.50;7.75;;;;;;;8.19;100.00;101605.75;10537074;28;20040;-74
2022/11/10 10:27:02;;;;;;;12.23;7.50;;;;;;;8.11;100.00;101610.81;10517830;28;20052;-74
2022/11/10 10:32:08;;;;;;;12.20;7.93;;;;;;;7.94;100.00;101584.84;10511851;28;20040;-74
2022/11/10 10:37:45;;;;;;;9.35;6.20;;;;;;;8.05;100.00;101611.31;10501388;28;20052;-74
2022/11/10 10:42:46;;;;;;;15.57;6.80;;;;;;;7.94;100.00;101600.72;10516330;28;20101;-74
2022/11/10 10:47:50;;;;;;;8.90;5.90;;;;;;;8.00;100.00;101618.75;10518390;28;20135;-74
2022/11/10 10:53:13;;;;;;;9.83;6.50;;;;;;;8.13;100.00;101614.16;10513114;28;20423;-74
2022/11/10 10:58:21;;;;;;;10.38;6.18;;;;;;;7.68;100.00;101534.81;10503548;28;20040;-74
2022/11/10 11:03:50;;;;;;;14.52;6.80;;;;;;;8.20;100.00;101625.97;10525529;28;20054;-74
2022/11/10 11:08:52;;;;;;;13.63;6.93;;;;;;;7.90;100.00;101584.25;10500831;28;20051;-74
2022/11/10 11:14:12;;;;;;;12.20;7.60;;;;;;;8.05;100.00;101613.09;10502096;28;20076;-74
2022/11/10 11:19:15;;;;;;;13.10;7.25;;;;;;;7.87;100.00;101600.34;10500023;28;20043;-74
2022/11/10 11:24:23;;;;;;;10.75;7.50;;;;;;;8.11;100.00;101637.28;10501506;28;20083;-74
2022/11/10 11:30:02;;;;;;;19.45;7.70;;;;;;;8.22;100.00;101616.09;10500913;28;20398;-74
2022/11/10 11:35:30;;;;;;;12.18;8.30;;;;;;;8.34;100.00;101635.44;10500952;28;20045;-74
2022/11/10 11:41:00;;;;;;;12.00;8.00;;;;;;;8.40;100.00;101648.25;10500906;28;20059;-74
2022/11/10 11:46:19;;;;;;;11.23;7.78;;;;;;;8.40;100.00;101644.75;10499701;28;20504;-74
2022/11/10 11:51:41;;;;;;;11.20;7.35;;;;;;;8.30;100.00;101646.44;10500327;28;20040;-74
2022/11/10 11:56:46;;;;;;;21.75;6.68;;;;;;;7.53;100.00;101536.00;10499333;28;20045;-74
2022/11/10 12:02:29;;;;;;;13.30;7.05;;;;;;;8.23;100.00;101654.00;10499811;28;20037;-74
2022/11/10 12:07:54;;;;;;;10.37;6.20;;;;;;;8.24;100.00;101669.75;10499344;28;20501;-73
2022/11/10 12:13:24;;;;;;;12.63;6.90;;;;;;;7.73;100.00;101588.19;10498530;28;20093;-75
2022/11/10 12:18:33;;;;;;;10.32;6.65;;;;;;;7.78;100.00;101607.19;10499124;28;20420;-74
2022/11/10 12:24:14;;;;;;;13.10;7.22;;;;;;;8.03;100.00;101649.44;10508449;28;20040;-75
2022/11/10 12:29:37;;;;;;;8.43;5.95;;;;;;;7.75;100.00;101619.84;10481254;28;20448;-73
2022/11/10 12:34:55;;;;;;;16.63;7.72;;;;;;;8.08;100.00;101666.66;10499763;28;20048;-72
2022/11/10 12:40:15;;;;;;;18.70;8.77;;;;;;;8.14;100.00;101678.56;10518185;28;20138;-72
2022/11/10 12:45:20;;;;;;;10.85;7.30;;;;;;;7.92;100.00;101650.25;10505539;28;20065;-73
2022/11/10 12:50:57;;;;;;;11.43;7.38;;;;;;;8.05;100.00;101682.75;10537422;28;20408;-73
2022/11/10 12:56:14;;;;;;;10.57;6.75;;;;;;;7.66;100.00;101625.81;10539182;28;20074;-73
2022/11/10 13:01:19;;;;;;;12.82;7.60;;;;;;;7.97;100.00;101674.56;10563014;28;20044;-73
2022/11/10 13:06:25;;;;;;;;;;;;;;;8.21;100.00;101683.25;10581793;28;20044;-73
2022/11/10 13:11:33;;;;;;;19.23;9.63;;;;;;;7.98;100.00;101681.53;10580467;28;19923;-73
2022/11/10 13:16:37;;;;;;;18.50;8.00;;;;;;;8.01;100.00;101687.41;10579699;28;20048;-73
2022/11/10 13:21:50;;;;;;;;;;;;;;;8.16;100.00;101685.41;10528826;28;20541;-73
2022/11/10 13:26:56;;;;;;;21.25;11.90;;;;;;;8.04;100.00;101683.69;10509618;28;20356;-73
2022/11/10 13:32:18;;;;;;;22.20;9.60;;;;;;;8.03;100.00;101689.13;10526877;28;20043;-72
2022/11/10 13:37:28;;;;;;;19.17;11.32;;;;;;;7.99;100.00;101688.53;10486900;28;20052;-76
2022/11/10 13:42:29;;;;;;;19.90;11.35;;;;;;;7.85;100.00;101678.16;10511613;28;20106;-73
2022/11/10 13:47:45;;;;;;;30.05;13.35;;;;;;;7.90;100.00;101700.66;10511757;28;20105;-74
2022/11/10 13:52:56;;;;;;;19.98;9.30;;;;;;;7.45;100.00;101609.78;10513218;28;20517;-73
2022/11/10 13:58:03;;;;;;;23.50;9.95;;;;;;;7.98;100.00;101703.53;10503071;28;20096;-74
2022/11/10 14:03:06;;;;;;;21.00;8.82;;;;;;;8.02;100.00;101706.81;10506465;28;20060;-74
2022/11/10 14:08:15;;;;;;;17.40;8.15;;;;;;;7.93;100.00;101681.06;10510334;28;20457;-74
2022/11/10 14:13:27;;;;;;;11.55;6.65;;;;;;;8.01;100.00;101686.59;10506122;28;20093;-74
2022/11/10 14:18:41;;;;;;;8.00;5.32;;;;;;;8.00;100.00;101695.50;10506617;28;20438;-73
2022/11/10 14:23:50;;;;;;;13.57;7.75;;;;;;;7.97;100.00;101691.28;10508379;28;20045;-72
2022/11/10 14:28:51;;;;;;;12.80;7.20;;;;;;;7.35;100.00;101606.16;10494950;28;20037;-71
2022/11/10 14:33:57;;;;;;;13.45;7.38;;;;;;;7.93;100.00;101707.53;10494836;28;20446;-71
2022/11/10 14:38:59;;;;;;;14.43;6.82;;;;;;;7.94;100.00;101707.38;10493436;28;20064;-71
2022/11/10 14:44:07;;;;;;;20.20;10.40;;;;;;;7.92;100.00;101711.94;10492136;28;20143;-71
2022/11/10 14:49:09;;;;;;;14.65;7.13;;;;;;;7.91;100.00;101717.38;10492467;28;20134;-72
2022/11/10 14:54:22;;;;;;;12.35;6.80;;;;;;;7.90;100.00;101715.69;10503314;28;20032;-71
2022/11/10 14:59:24;;;;;;;8.18;5.80;;;;;;;7.65;100.00;101690.25;10535271;28;20077;-71
2022/11/10 15:04:32;;;;;;;10.82;5.43;;;;;;;7.83;100.00;101717.09;10544107;28;20046;-73
2022/11/10 15:09:33;;;;;;;8.40;5.30;;;;;;;7.87;100.00;101723.88;10523013;28;20102;-72
2022/11/10 15:14:38;;;;;;;9.48;6.00;;;;;;;7.82;100.00;101728.66;10517168;28;20040;-71
2022/11/10 15:19:45;;;;;;;20.05;8.30;;;;;;;7.26;100.00;101652.63;10520560;28;20032;-74
2022/11/10 15:24:49;;;;;;;47.33;17.08;;;;;;;7.77;100.00;101736.94;10503519;28;20043;-74
2022/11/10 15:29:51;;;;;;;33.22;12.77;;;;;;;7.61;100.00;101715.25;10526287;28;20540;-74
2022/11/10 15:35:05;;;;;;;51.75;18.05;;;;;;;7.31;100.00;101667.19;10501861;28;20412;-72
2022/11/10 15:40:31;;;;;;;18.13;8.90;;;;;;;7.81;100.00;101737.53;10499076;28;20056;-75
2022/11/10 15:45:32;;;;;;;33.17;14.35;;;;;;;7.83;100.00;101740.91;10510093;28;20301;-75
2022/11/10 15:50:33;;;;;;;18.52;9.73;;;;;;;7.66;100.00;101713.09;10523271;28;20052;-72
2022/11/10 15:55:34;;;;;;;14.90;7.72;;;;;;;7.75;100.00;101723.84;10512306;28;20044;-74
2022/11/10 16:00:35;;;;;;;14.23;6.75;;;;;;;7.91;100.00;101734.09;10504748;28;20041;-75
2022/11/10 16:05:41;;;;;;;11.15;6.50;;;;;;;7.56;100.00;101673.25;10506074;28;20048;-74
2022/11/10 16:10:44;;;;;;;8.43;5.10;;;;;;;7.89;100.00;101738.63;10510865;28;20040;-73
2022/11/10 16:15:46;;;;;;;20.70;7.53;;;;;;;7.81;100.00;101733.13;10517161;28;20032;-72
2022/11/10 16:20:51;;;;;;;19.55;9.45;;;;;;;7.07;100.00;101610.88;10510179;28;20344;-74
2022/11/10 16:25:55;;;;;;;26.85;11.07;;;;;;;7.77;100.00;101731.63;10512806;28;20041;-74
2022/11/10 16:30:57;;;;;;;13.27;7.90;;;;;;;7.86;100.00;101748.63;10515157;28;20182;-74
2022/11/10 16:35:58;;;;;;;14.48;7.68;;;;;;;7.88;100.00;101722.91;10517581;28;20077;-75
2022/11/10 16:41:02;;;;;;;10.40;6.25;;;;;;;7.75;100.00;101717.69;10523340;28;20060;-74
2022/11/10 16:46:16;;;;;;;9.35;5.68;;;;;;;7.80;100.00;101704.94;10526177;28;20056;-75
2022/11/10 16:51:30;;;;;;;9.43;5.85;;;;;;;7.88;100.00;101721.09;10515888;28;20382;-75
2022/11/10 16:56:31;;;;;;;14.13;9.25;;;;;;;7.95;100.00;101719.66;10509240;28;20051;-75
2022/11/10 17:01:34;;;;;;;17.35;11.43;;;;;;;7.67;100.00;101661.88;10508816;28;20042;-74
2022/11/10 17:06:35;;;;;;;19.95;11.50;;;;;;;8.03;100.00;101705.84;10510277;28;20047;-73
2022/11/10 17:11:36;;;;;;;19.40;12.77;;;;;;;8.00;100.00;101700.78;10508429;28;20036;-74
2022/11/10 17:16:38;;;;;;;17.13;11.38;;;;;;;8.08;100.00;101719.56;10507116;28;20039;-73
2022/11/10 17:21:39;;;;;;;17.52;8.98;;;;;;;7.55;100.00;101619.53;10499654;28;20051;-72
2022/11/10 17:26:41;;;;;;;11.77;7.35;;;;;;;7.70;100.00;101638.69;10516358;28;20040;-73
2022/11/10 17:31:43;;;;;;;12.30;5.85;;;;;;;8.13;100.00;101720.03;10516359;28;20093;-73
2022/11/10 17:36:43;;;;;;;12.93;6.78;;;;;;;8.16;100.00;101714.50;10511569;28;20043;-72
2022/11/10 17:41:44;;;;;;;14.93;11.27;;;;;;;7.70;100.00;101625.47;10504047;28;20056;-72
2022/11/10 17:46:45;;;;;;;11.55;7.57;;;;;;;8.18;100.00;101703.81;10508904;28;20518;-72
2022/11/10 17:51:46;;;;;;;8.80;4.72;;;;;;;8.28;100.00;101714.53;10534682;28;20051;-73
2022/11/10 17:56:47;;;;;;;8.88;5.97;;;;;;;8.17;100.00;101687.09;10510129;28;20040;-73
2022/11/10 18:01:48;;;;;;;11.75;4.55;;;;;;;8.39;100.00;101723.34;10512882;28;20029;-73
2022/11/10 18:06:49;;;;;;;8.00;5.20;;;;;;;8.40;100.00;101709.13;10510026;28;20037;-73
2022/11/10 18:11:50;;;;;;;11.05;5.43;;;;;;;7.95;100.00;101639.44;10504063;28;20040;-73
2022/11/10 18:16:52;;;;;;;10.57;6.20;;;;;;;8.40;100.00;101721.53;10536709;28;20044;-73
2022/11/10 18:21:53;;;;;;;5.20;4.07;;;;;;;7.80;100.00;101627.41;10536961;28;20526;-73
2022/11/10 18:26:54;;;;;;;7.72;3.90;;;;;;;8.32;100.00;101700.94;10529989;28;20156;-73
2022/11/10 18:31:54;;;;;;;8.15;4.57;;;;;;;8.26;100.00;101692.66;10505282;28;20040;-73
2022/11/10 18:36:55;;;;;;;5.80;3.92;;;;;;;8.46;100.00;101721.06;10519504;28;20044;-73
2022/11/10 18:41:56;;;;;;;8.13;3.90;;;;;;;8.44;100.00;101723.84;10544159;28;20470;-73
2022/11/10 18:46:57;;;;;;;6.63;3.92;;;;;;;8.52;100.00;101728.53;10544582;28;20503;-74
2022/11/10 18:51:59;;;;;;;5.85;3.90;;;;;;;8.42;100.00;101723.13;10543398;28;20040;-74
2022/11/10 18:57:00;;;;;;;6.97;4.32;;;;;;;8.49;100.00;101722.63;10509912;28;20127;-74
2022/11/10 19:02:00;;;;;;;7.97;3.85;;;;;;;8.48;100.00;101719.16;10502177;28;20548;-73
2022/11/10 19:07:01;;;;;;;6.00;4.13;;;;;;;8.58;100.00;101730.69;10520114;28;20044;-74
2022/11/10 19:12:02;;;;;;;10.18;4.88;;;;;;;8.62;100.00;101729.50;10520781;28;20055;-74
2022/11/10 19:17:03;;;;;;;13.23;5.40;;;;;;;8.61;100.00;101708.41;10501824;28;20048;-74
2022/11/10 19:22:04;;;;;;;10.57;6.50;;;;;;;8.11;100.00;101629.34;10500640;28;20123;-74
2022/11/10 19:27:06;;;;;;;7.47;5.35;;;;;;;8.61;100.00;101716.34;10501787;28;20049;-74
2022/11/10 19:32:07;;;;;;;10.88;7.90;;;;;;;8.66;100.00;101707.09;10512381;28;20040;-74
2022/11/10 19:37:08;;;;;;;18.40;6.97;;;;;;;8.56;100.00;101684.13;10499657;28;20049;-75
2022/11/10 19:42:08;;;;;;;9.48;6.22;;;;;;;8.30;100.00;101644.63;10506564;28;20053;-74
2022/11/10 19:47:09;;;;;;;11.80;6.63;;;;;;;8.64;100.00;101694.94;10509249;28;20129;-74
2022/11/10 19:52:10;;;;;;;9.65;6.20;;;;;;;8.65;100.00;101702.75;10500082;28;20086;-74
2022/11/10 19:57:11;;;;;;;9.10;6.70;;;;;;;8.68;100.00;101705.16;10500064;28;20047;-75
2022/11/10 20:02:11;;;;;;;12.43;8.07;;;;;;;8.71;100.00;101712.03;10502240;28;20403;-73
2022/11/10 20:12:32;;;;;;;12.27;7.00;;;;;;;8.22;100.00;101625.84;10511445;28;20041;-74
2022/11/10 20:17:33;;;;;;;8.75;6.40;;;;;;;8.77;100.00;101719.50;10517770;28;20071;-74
2022/11/10 20:22:34;;;;;;;10.13;7.00;;;;;;;8.34;100.00;101650.50;10515043;28;20067;-74
2022/11/10 20:27:35;;;;;;;8.73;6.57;;;;;;;8.33;100.00;101652.31;10517333;28;20488;-74
2022/11/10 20:32:36;;;;;;;9.82;7.97;;;;;;;8.42;100.00;101659.56;10514065;28;20047;-74
2022/11/10 20:37:37;;;;;;;12.68;7.78;;;;;;;8.73;100.00;101715.38;10512911;28;20051;-74
2022/11/10 20:42:39;;;;;;;10.20;8.15;;;;;;;8.11;100.00;101613.47;10518556;28;20060;-74
2022/11/10 20:47:39;;;;;;;11.68;9.35;;;;;;;8.74;100.00;101710.94;10497496;28;20056;-74
2022/11/10 20:52:40;;;;;;;13.05;9.10;;;;;;;8.77;100.00;101716.84;10498355;28;20038;-73
2022/11/10 20:57:41;;;;;;;14.55;10.98;;;;;;;8.72;100.00;101710.22;10498132;28;20037;-73
2022/11/10 21:02:42;;;;;;;13.02;11.05;;;;;;;8.79;100.00;101722.00;10497494;28;20075;-74
2022/11/10 21:07:42;;;;;;;14.20;11.07;;;;;;;8.65;100.00;101697.47;10496441;28;20055;-74
2022/11/10 21:12:49;;;;;;;11.93;9.75;;;;;;;8.78;100.00;101722.97;10496441;28;20051;-74
2022/11/10 21:17:50;;;;;;;12.45;10.90;;;;;;;8.79;100.00;101719.34;10497431;28;20029;-74
2022/11/10 21:22:51;;;;;;;13.80;11.02;;;;;;;8.80;100.00;101721.06;10496194;28;20041;-74
2022/11/10 21:27:52;;;;;;;15.75;12.73;;;;;;;8.69;100.00;101714.78;10496350;28;20515;-74
2022/11/10 21:32:53;;;;;;;14.07;12.10;;;;;;;8.54;100.00;101694.81;10496619;28;20111;-73
2022/11/10 21:37:54;;;;;;;13.13;11.05;;;;;;;8.74;100.00;101727.69;10497351;28;20139;-74
2022/11/10 21:42:55;;;;;;;13.65;11.70;;;;;;;8.71;100.00;101732.38;10496381;28;20515;-74
2022/11/10 21:48:00;;;;;;;14.38;11.93;;;;;;;8.12;100.00;101624.91;10506306;28;20052;-74
2022/11/10 21:53:06;;;;;;;16.40;13.27;;;;;;;8.67;100.00;101705.28;10495426;28;20045;-74
2022/11/10 21:58:07;;;;;;;14.80;12.38;;;;;;;8.76;100.00;101731.03;10494350;28;20051;-73
2022/11/10 22:03:08;;;;;;;14.50;10.70;;;;;;;8.44;100.00;101678.00;10494576;28;20106;-74
2022/11/10 22:08:09;;;;;;;13.80;11.48;;;;;;;8.68;100.00;101718.41;10495568;28;20063;-73
2022/11/10 22:18:36;;;;;;;14.15;11.38;;;;;;;8.10;100.00;101642.69;10506491;28;20048;-75
2022/11/10 22:28:56;;;;;;;16.48;12.40;;;;;;;8.11;100.00;101654.97;10494565;28;20114;-75
2022/11/10 22:33:57;;;;;;;14.73;12.82;;;;;;;8.57;100.00;101731.66;10494700;28;20043;-75
2022/11/10 22:38:58;;;;;;;16.38;12.85;;;;;;;8.57;100.00;101714.94;10494741;28;20477;-74
2022/11/10 22:44:03;;;;;;;13.50;12.10;;;;;;;8.73;100.00;101738.38;10495066;28;20097;-74
2022/11/10 22:49:09;;;;;;;13.43;12.05;;;;;;;8.62;100.00;101718.91;10505960;28;20029;-75
2022/11/10 22:54:14;;;;;;;14.43;12.93;;;;;;;8.80;100.00;101732.50;10494315;28;20048;-75
2022/11/10 22:59:15;;;;;;;14.63;13.13;;;;;;;8.69;100.00;101712.13;10494204;28;20127;-74
2022/11/10 23:04:16;;;;;;;15.02;12.85;;;;;;;8.25;100.00;101633.53;10494786;28;20065;-75
2022/11/10 23:09:16;;;;;;;14.65;11.93;;;;;;;8.40;100.00;101666.78;10494645;28;20040;-75
2022/11/10 23:14:17;;;;;;;13.95;11.55;;;;;;;8.37;100.00;101653.75;10501874;28;20115;-74
2022/11/10 23:19:18;;;;;;;14.90;11.68;;;;;;;8.77;100.00;101743.34;10501766;28;20044;-74
2022/11/10 23:24:23;;;;;;;15.18;11.75;;;;;;;8.72;100.00;101734.06;10501445;28;20046;-74
2022/11/10 23:29:24;;;;;;;17.70;12.13;;;;;;;8.64;100.00;101730.19;10501395;28;20047;-75